PWSweather.com
Personal Weather Stations
Station Observations
WATERF01
WaterfordIE

WaterfordIE

Lat: 52.2412507, Lon: -7.1414691

Elevation: 65

Station Type: Davis Vantage Vue

Latest ConditionsUpdated 3:10:00 PM GMT Wednesday, Oct 17, 2018
Currently Today's Max Today's Min Today's Average
Temperature 54.8°F12.7°C 55.4°F13.0°C 42.4°F5.8°C 48.8°F9.3°C
Dew Point 47.4°F8.6°C 48.6°F9.2°C 39.7°F4.3°C 44.5°F6.9°C
Winds 6.9 mph NW11.1 kmh NW 8.1 mph -13.0 kmh - - 2.2 mph 3.5 kmh
Wind Gusts 12.7 mph20.4 kmh 13.8 mph22.2 kmh - -
Humidity 76% 90% 75% 85%
Pressure 30.18 in1022.0 mb 30.18 in1022.0 mb 29.97 in1014.9 mb -
Hour Temp Dew Point Humidity Winds Wind Gusts Pressure Precip Precip Rate Daily Precip Total
03:10 PM 54.8°F12.7°C 47.4°F8.6°C 76% 6.9 mph NW11.1 kmh NW 12.7 mph20.4 kmh 30.18 in1022.0 mb - 0.00 in0.0 mm 0.00 in0.0 mm
03:00 PM 54.8°F12.7°C 47.4°F8.6°C 76% 4.6 mph NW7.4 kmh NW 9.2 mph14.8 kmh 30.18 in1022.0 mb - 0.00 in0.0 mm 0.00 in0.0 mm
02:50 PM 54.8°F12.7°C 47.4°F8.6°C 76% 5.8 mph NW9.3 kmh NW 13.8 mph22.2 kmh 30.18 in1022.0 mb - 0.00 in0.0 mm 0.00 in0.0 mm
02:40 PM 54.8°F12.7°C 47.4°F8.6°C 76% 5.8 mph NW9.3 kmh NW 9.2 mph14.8 kmh 30.18 in1022.0 mb - 0.00 in0.0 mm 0.00 in0.0 mm
02:30 PM 54.8°F12.7°C 47.4°F8.6°C 76% 5.8 mph NW9.3 kmh NW 9.2 mph14.8 kmh 30.18 in1022.0 mb - 0.00 in0.0 mm 0.00 in0.0 mm
02:20 PM 54.8°F12.7°C 47.4°F8.6°C 76% 8.1 mph NW13.0 kmh NW 11.5 mph18.5 kmh 30.18 in1022.0 mb - 0.00 in0.0 mm 0.00 in0.0 mm
02:10 PM 54.8°F12.7°C 47.4°F8.6°C 76% 6.9 mph NW11.1 kmh NW 12.7 mph20.4 kmh 30.18 in1022.0 mb - 0.00 in0.0 mm 0.00 in0.0 mm
02:00 PM 54.8°F12.7°C 47.4°F8.6°C 76% 4.6 mph NW7.4 kmh NW 12.7 mph20.4 kmh 30.18 in1022.0 mb - 0.00 in0.0 mm 0.00 in0.0 mm
01:50 PM 54.8°F12.7°C 47.4°F8.6°C 76% 5.8 mph NW9.3 kmh NW 13.8 mph22.2 kmh 30.18 in1022.0 mb - 0.00 in0.0 mm 0.00 in0.0 mm
01:40 PM 54.8°F12.7°C 47.4°F8.6°C 76% 4.6 mph NW7.4 kmh NW 9.2 mph14.8 kmh 30.18 in1022.0 mb - 0.00 in0.0 mm 0.00 in0.0 mm
01:30 PM 54.8°F12.7°C 47.4°F8.6°C 76% 5.8 mph NW9.3 kmh NW 8.1 mph13.0 kmh 30.18 in1022.0 mb - 0.00 in0.0 mm 0.00 in0.0 mm
01:20 PM 54.8°F12.7°C 47.4°F8.6°C 76% 6.9 mph NW11.1 kmh NW 13.8 mph22.2 kmh 30.18 in1022.0 mb - 0.00 in0.0 mm 0.00 in0.0 mm
01:10 PM 54.8°F12.7°C 47.4°F8.6°C 76% 4.6 mph NW7.4 kmh NW 13.8 mph22.2 kmh 30.18 in1022.0 mb - 0.00 in0.0 mm 0.00 in0.0 mm
01:00 PM 54.8°F12.7°C 47.4°F8.6°C 76% 4.6 mph NW7.4 kmh NW 11.5 mph18.5 kmh 30.18 in1022.0 mb - 0.00 in0.0 mm 0.00 in0.0 mm
12:50 PM 54.8°F12.7°C 47.4°F8.6°C 76% 5.8 mph NW9.3 kmh NW 9.2 mph14.8 kmh 30.18 in1022.0 mb - 0.00 in0.0 mm 0.00 in0.0 mm
12:40 PM 54.8°F12.7°C 47.4°F8.6°C 76% 3.5 mph NW5.6 kmh NW 9.2 mph14.8 kmh 30.18 in1022.0 mb - 0.00 in0.0 mm 0.00 in0.0 mm
12:30 PM 54.8°F12.7°C 47.4°F8.6°C 76% 5.8 mph NW9.3 kmh NW 11.5 mph18.5 kmh 30.18 in1022.0 mb - 0.00 in0.0 mm 0.00 in0.0 mm
12:20 PM 54.8°F12.7°C 47.4°F8.6°C 76% 5.8 mph NW9.3 kmh NW 8.1 mph13.0 kmh 30.18 in1022.0 mb - 0.00 in0.0 mm 0.00 in0.0 mm
12:10 PM 54.8°F12.7°C 47.4°F8.6°C 76% 4.6 mph NW7.4 kmh NW 6.9 mph11.1 kmh 30.18 in1022.0 mb - 0.00 in0.0 mm 0.00 in0.0 mm
12:00 PM 55.2°F12.9°C 47.4°F8.6°C 75% 6.9 mph NW11.1 kmh NW 11.5 mph18.5 kmh 30.18 in1022.0 mb - 0.00 in0.0 mm 0.00 in0.0 mm
11:50 AM 55.4°F13.0°C 48.3°F9.1°C 77% 3.5 mph NNE5.6 kmh NNE 6.9 mph11.1 kmh 30.17 in1021.7 mb - 0.00 in0.0 mm 0.00 in0.0 mm
11:40 AM 55.0°F12.8°C 48.6°F9.2°C 79% 5.8 mph NW9.3 kmh NW 11.5 mph18.5 kmh 30.17 in1021.7 mb - 0.00 in0.0 mm 0.00 in0.0 mm
11:30 AM 54.4°F12.4°C 48.0°F8.9°C 79% 1.2 mph NW1.9 kmh NW 11.5 mph18.5 kmh 30.17 in1021.7 mb - 0.00 in0.0 mm 0.00 in0.0 mm
11:20 AM 54.5°F12.5°C 48.5°F9.2°C 80% 3.5 mph W5.6 kmh W 10.4 mph16.7 kmh 30.17 in1021.7 mb - 0.00 in0.0 mm 0.00 in0.0 mm
11:10 AM 53.6°F12.0°C 48.2°F9.0°C 82% 3.5 mph NW5.6 kmh NW 9.2 mph14.8 kmh 30.17 in1021.7 mb - 0.00 in0.0 mm 0.00 in0.0 mm
11:00 AM 53.2°F11.8°C 48.2°F9.0°C 83% 4.6 mph NW7.4 kmh NW 5.8 mph9.3 kmh 30.17 in1021.7 mb - 0.00 in0.0 mm 0.00 in0.0 mm
10:50 AM 53.0°F11.7°C 48.0°F8.9°C 83% 5.8 mph NW9.3 kmh NW 8.1 mph13.0 kmh 30.16 in1021.3 mb - 0.00 in0.0 mm 0.00 in0.0 mm
10:40 AM 53.0°F11.7°C 48.3°F9.1°C 84% 4.6 mph NW7.4 kmh NW 9.2 mph14.8 kmh 30.16 in1021.3 mb - 0.00 in0.0 mm 0.00 in0.0 mm
10:30 AM 52.5°F11.4°C 48.1°F8.9°C 85% 3.5 mph NW5.6 kmh NW 5.8 mph9.3 kmh 30.16 in1021.3 mb - 0.00 in0.0 mm 0.00 in0.0 mm
10:20 AM 52.2°F11.2°C 47.8°F8.8°C 85% 4.6 mph NW7.4 kmh NW 8.1 mph13.0 kmh 30.16 in1021.3 mb - 0.00 in0.0 mm 0.00 in0.0 mm
10:10 AM 51.9°F11.1°C 47.8°F8.8°C 86% 3.5 mph NW5.6 kmh NW 4.6 mph7.4 kmh 30.15 in1021.0 mb - 0.00 in0.0 mm 0.00 in0.0 mm
10:00 AM 51.6°F10.9°C 47.9°F8.8°C 87% 1.2 mph NW1.9 kmh NW 5.8 mph9.3 kmh 30.15 in1021.0 mb - 0.00 in0.0 mm 0.00 in0.0 mm
09:50 AM 51.2°F10.7°C 47.5°F8.6°C 87% 3.5 mph NW5.6 kmh NW 5.8 mph9.3 kmh 30.14 in1020.7 mb - 0.00 in0.0 mm 0.00 in0.0 mm
09:40 AM 50.9°F10.5°C 47.2°F8.4°C 87% 3.5 mph NW5.6 kmh NW 8.1 mph13.0 kmh 30.13 in1020.3 mb - 0.00 in0.0 mm 0.00 in0.0 mm
09:30 AM 50.6°F10.3°C 46.9°F8.3°C 87% 4.6 mph NW7.4 kmh NW 5.8 mph9.3 kmh 30.13 in1020.3 mb - 0.00 in0.0 mm 0.00 in0.0 mm
09:20 AM 50.5°F10.3°C 47.0°F8.3°C 88% 1.2 mph NW1.9 kmh NW 2.3 mph3.7 kmh 30.12 in1020.0 mb - 0.00 in0.0 mm 0.00 in0.0 mm
09:10 AM 50.0°F10.0°C 46.9°F8.3°C 89% 3.5 mph NW5.6 kmh NW 8.1 mph13.0 kmh 30.12 in1020.0 mb - 0.00 in0.0 mm 0.00 in0.0 mm
09:00 AM 49.4°F9.7°C 46.3°F7.9°C 89% 6.9 mph NW11.1 kmh NW 8.1 mph13.0 kmh 30.12 in1020.0 mb - 0.00 in0.0 mm 0.00 in0.0 mm
08:50 AM 48.7°F9.3°C 45.9°F7.7°C 90% 5.8 mph NW9.3 kmh NW 8.1 mph13.0 kmh 30.11 in1019.6 mb - 0.00 in0.0 mm 0.00 in0.0 mm
08:40 AM 47.2°F8.4°C 44.4°F6.9°C 90% 4.6 mph NW7.4 kmh NW 6.9 mph11.1 kmh 30.10 in1019.3 mb - 0.00 in0.0 mm 0.00 in0.0 mm
08:30 AM 45.1°F7.3°C 42.3°F5.7°C 90% Calm Calm -- 30.10 in1019.3 mb - 0.00 in0.0 mm 0.00 in0.0 mm
08:20 AM 44.4°F6.9°C 41.7°F5.4°C 90% Calm Calm -- 30.09 in1019.0 mb - 0.00 in0.0 mm 0.00 in0.0 mm
08:10 AM 44.0°F6.7°C 41.3°F5.2°C 90% Calm Calm -- 30.09 in1019.0 mb - 0.00 in0.0 mm 0.00 in0.0 mm
08:00 AM 44.0°F6.7°C 41.3°F5.2°C 90% Calm Calm -- 30.08 in1018.6 mb - 0.00 in0.0 mm 0.00 in0.0 mm
07:50 AM 44.4°F6.9°C 41.6°F5.3°C 90% Calm Calm -- 30.08 in1018.6 mb - 0.00 in0.0 mm 0.00 in0.0 mm
07:40 AM 45.5°F7.5°C 42.7°F5.9°C 90% Calm Calm -- 30.07 in1018.3 mb - 0.00 in0.0 mm 0.00 in0.0 mm
07:30 AM 45.3°F7.4°C 42.5°F5.8°C 90% 2.3 mph W3.7 kmh W 4.6 mph7.4 kmh 30.06 in1017.9 mb - 0.00 in0.0 mm 0.00 in0.0 mm
07:20 AM 44.8°F7.1°C 42.0°F5.6°C 90% 1.2 mph W1.9 kmh W 2.3 mph3.7 kmh 30.06 in1017.9 mb - 0.00 in0.0 mm 0.00 in0.0 mm
07:10 AM 43.9°F6.6°C 41.1°F5.1°C 90% 3.5 mph W5.6 kmh W 5.8 mph9.3 kmh 30.06 in1017.9 mb - 0.00 in0.0 mm 0.00 in0.0 mm
07:00 AM 42.6°F5.9°C 39.9°F4.4°C 90% Calm Calm 2.3 mph3.7 kmh 30.06 in1017.9 mb - 0.00 in0.0 mm 0.00 in0.0 mm
06:50 AM 42.8°F6.0°C 40.1°F4.5°C 90% Calm Calm -- 30.06 in1017.9 mb - 0.00 in0.0 mm 0.00 in0.0 mm
06:40 AM 43.0°F6.1°C 40.3°F4.6°C 90% Calm Calm -- 30.05 in1017.6 mb - 0.00 in0.0 mm 0.00 in0.0 mm
06:30 AM 43.0°F6.1°C 40.3°F4.6°C 90% Calm Calm -- 30.05 in1017.6 mb - 0.00 in0.0 mm 0.00 in0.0 mm
06:20 AM 42.4°F5.8°C 39.7°F4.3°C 90% Calm Calm -- 30.04 in1017.3 mb - 0.00 in0.0 mm 0.00 in0.0 mm
06:10 AM 42.4°F5.8°C 39.7°F4.3°C 90% Calm Calm -- 30.04 in1017.3 mb - 0.00 in0.0 mm 0.00 in0.0 mm
06:00 AM 42.7°F5.9°C 39.9°F4.4°C 90% 2.3 mph W3.7 kmh W 4.6 mph7.4 kmh 30.04 in1017.3 mb - 0.00 in0.0 mm 0.00 in0.0 mm
05:50 AM 43.3°F6.3°C 40.6°F4.8°C 90% Calm Calm -- 30.04 in1017.3 mb - 0.00 in0.0 mm 0.00 in0.0 mm
05:40 AM 43.6°F6.4°C 40.9°F4.9°C 90% Calm Calm -- 30.03 in1016.9 mb - 0.00 in0.0 mm 0.00 in0.0 mm
05:30 AM 43.5°F6.4°C 40.8°F4.9°C 90% Calm Calm -- 30.03 in1016.9 mb - 0.00 in0.0 mm 0.00 in0.0 mm
05:20 AM 44.0°F6.7°C 41.3°F5.2°C 90% Calm Calm -- 30.02 in1016.6 mb - 0.00 in0.0 mm 0.00 in0.0 mm
05:10 AM 44.3°F6.8°C 41.6°F5.3°C 90% Calm Calm -- 30.02 in1016.6 mb - 0.00 in0.0 mm 0.00 in0.0 mm
05:00 AM 44.6°F7.0°C 41.8°F5.4°C 90% Calm Calm -- 30.02 in1016.6 mb - 0.00 in0.0 mm 0.00 in0.0 mm
04:50 AM 44.6°F7.0°C 41.9°F5.5°C 90% Calm Calm 1.2 mph1.9 kmh 30.02 in1016.6 mb - 0.00 in0.0 mm 0.00 in0.0 mm
04:40 AM 44.7°F7.1°C 41.9°F5.5°C 90% Calm Calm -- 30.01 in1016.3 mb - 0.00 in0.0 mm 0.00 in0.0 mm
04:30 AM 44.5°F6.9°C 41.7°F5.4°C 90% Calm Calm -- 30.01 in1016.3 mb - 0.00 in0.0 mm 0.00 in0.0 mm
04:20 AM 44.5°F6.9°C 41.7°F5.4°C 90% Calm Calm -- 30.01 in1016.3 mb - 0.00 in0.0 mm 0.00 in0.0 mm
04:10 AM 44.3°F6.8°C 41.3°F5.2°C 89% Calm Calm -- 30.01 in1016.3 mb - 0.00 in0.0 mm 0.00 in0.0 mm
04:00 AM 44.4°F6.9°C 41.4°F5.2°C 89% Calm Calm -- 30.00 in1015.9 mb - 0.00 in0.0 mm 0.00 in0.0 mm
03:50 AM 45.0°F7.2°C 42.0°F5.6°C 89% Calm Calm -- 30.00 in1015.9 mb - 0.00 in0.0 mm 0.00 in0.0 mm
03:40 AM 45.2°F7.3°C 42.2°F5.7°C 89% Calm Calm -- 30.00 in1015.9 mb - 0.00 in0.0 mm 0.00 in0.0 mm
03:30 AM 45.3°F7.4°C 42.2°F5.7°C 89% Calm Calm -- 30.00 in1015.9 mb - 0.00 in0.0 mm 0.00 in0.0 mm
03:20 AM 45.7°F7.6°C 42.6°F5.9°C 89% Calm Calm 1.2 mph1.9 kmh 30.00 in1015.9 mb - 0.00 in0.0 mm 0.00 in0.0 mm
03:10 AM 45.6°F7.6°C 42.5°F5.8°C 89% Calm Calm -- 30.00 in1015.9 mb - 0.00 in0.0 mm 0.00 in0.0 mm
03:00 AM 45.9°F7.7°C 42.8°F6.0°C 89% Calm Calm -- 29.99 in1015.6 mb - 0.00 in0.0 mm 0.00 in0.0 mm
02:50 AM 46.1°F7.8°C 43.0°F6.1°C 89% Calm Calm -- 29.98 in1015.2 mb - 0.00 in0.0 mm 0.00 in0.0 mm
02:40 AM 46.6°F8.1°C 43.5°F6.4°C 89% Calm Calm -- 29.98 in1015.2 mb - 0.00 in0.0 mm 0.00 in0.0 mm
02:30 AM 46.7°F8.2°C 43.7°F6.5°C 89% Calm Calm -- 29.99 in1015.6 mb - 0.00 in0.0 mm 0.00 in0.0 mm
02:20 AM 46.9°F8.3°C 43.8°F6.6°C 89% Calm Calm -- 29.98 in1015.2 mb - 0.00 in0.0 mm 0.00 in0.0 mm
02:10 AM 46.1°F7.8°C 43.1°F6.2°C 89% Calm Calm -- 29.98 in1015.2 mb - 0.00 in0.0 mm 0.00 in0.0 mm
02:00 AM 46.2°F7.9°C 43.1°F6.2°C 89% Calm Calm -- 29.98 in1015.2 mb - 0.00 in0.0 mm 0.00 in0.0 mm
01:50 AM 46.2°F7.9°C 43.1°F6.2°C 89% Calm Calm -- 29.98 in1015.2 mb - 0.00 in0.0 mm 0.00 in0.0 mm
01:40 AM 46.3°F7.9°C 43.2°F6.2°C 89% Calm Calm -- 29.98 in1015.2 mb - 0.00 in0.0 mm 0.00 in0.0 mm
01:30 AM 46.4°F8.0°C 43.3°F6.3°C 89% Calm Calm -- 29.98 in1015.2 mb - 0.00 in0.0 mm 0.00 in0.0 mm
01:20 AM 46.7°F8.2°C 43.6°F6.4°C 89% Calm Calm -- 29.98 in1015.2 mb - 0.00 in0.0 mm 0.00 in0.0 mm
01:10 AM 46.9°F8.3°C 43.5°F6.4°C 88% Calm Calm -- 29.98 in1015.2 mb - 0.00 in0.0 mm 0.00 in0.0 mm
01:00 AM 47.5°F8.6°C 44.1°F6.7°C 88% Calm Calm -- 29.98 in1015.2 mb - 0.00 in0.0 mm 0.00 in0.0 mm
12:50 AM 47.8°F8.8°C 44.4°F6.9°C 88% Calm Calm -- 29.98 in1015.2 mb - 0.00 in0.0 mm 0.00 in0.0 mm
12:40 AM 47.9°F8.8°C 44.5°F6.9°C 88% Calm Calm -- 29.98 in1015.2 mb - 0.00 in0.0 mm 0.00 in0.0 mm
12:30 AM 47.9°F8.8°C 44.5°F6.9°C 88% Calm Calm -- 29.97 in1014.9 mb - 0.00 in0.0 mm 0.00 in0.0 mm
12:20 AM 48.1°F8.9°C 44.7°F7.1°C 88% Calm Calm -- 29.97 in1014.9 mb - 0.00 in0.0 mm 0.00 in0.0 mm
12:10 AM 48.0°F8.9°C 44.6°F7.0°C 88% Calm Calm -- 29.97 in1014.9 mb - 0.00 in0.0 mm 0.00 in0.0 mm
12:00 AM 48.6°F9.2°C 45.2°F7.3°C 88% Calm Calm -- 29.97 in1014.9 mb - 0.00 in0.0 mm 0.00 in0.0 mm